createdAt,value
2022-10-11T00:01:20.543Z,9.08
2022-10-11T00:03:47.260Z,8.90
2022-10-11T00:06:13.756Z,8.89
2022-10-11T00:08:40.283Z,9.11
2022-10-11T00:11:07.929Z,9.08
2022-10-11T00:13:34.970Z,9.03
2022-10-11T00:16:06.633Z,9.06
2022-10-11T00:18:33.356Z,8.93
2022-10-11T00:21:02.201Z,8.86
2022-10-11T00:23:28.845Z,8.78
2022-10-11T00:26:00.183Z,8.84
2022-10-11T00:28:26.905Z,8.86
2022-10-11T00:30:53.608Z,8.79
2022-10-11T00:33:20.236Z,8.77
2022-10-11T00:35:46.783Z,8.72
2022-10-11T00:38:13.442Z,8.71
2022-10-11T00:40:40.163Z,8.76
2022-10-11T00:43:19.472Z,8.69
2022-10-11T00:45:58.335Z,8.82
2022-10-11T00:48:44.526Z,8.73
2022-10-11T00:51:23.506Z,8.55
2022-10-11T00:53:51.470Z,8.28
2022-10-11T00:56:24.887Z,8.25
2022-10-11T00:58:52.742Z,8.24
2022-10-11T01:01:19.492Z,8.36
2022-10-11T01:03:46.995Z,8.46
2022-10-11T01:06:13.651Z,8.60
2022-10-11T01:08:40.555Z,8.59
2022-10-11T01:11:12.187Z,8.43
2022-10-11T01:14:03.176Z,8.42
2022-10-11T01:16:39.398Z,8.36
2022-10-11T01:19:08.923Z,8.32
2022-10-11T01:21:48.577Z,8.29
2022-10-11T01:24:38.261Z,8.28
2022-10-11T01:27:10.786Z,8.14
2022-10-11T01:30:03.802Z,8.14
2022-10-11T01:33:02.677Z,8.07
2022-10-11T01:35:49.186Z,8.08
2022-10-11T01:38:34.918Z,8.15
2022-10-11T01:41:10.179Z,8.25
2022-10-11T01:43:39.345Z,8.12
2022-10-11T01:46:08.617Z,8.19
2022-10-11T01:48:56.843Z,7.97
2022-10-11T01:51:29.939Z,7.96
2022-10-11T01:54:04.180Z,8.01
2022-10-11T01:56:52.042Z,8.22
2022-10-11T01:59:37.173Z,8.21
2022-10-11T02:02:40.953Z,8.28
2022-10-11T02:05:19.783Z,7.95
2022-10-11T02:07:58.676Z,7.86
2022-10-11T02:10:35.924Z,7.91
2022-10-11T02:13:09.402Z,7.83
2022-10-11T02:15:40.413Z,7.80
2022-10-11T02:18:15.997Z,7.84
2022-10-11T02:20:45.073Z,7.88
2022-10-11T02:23:23.308Z,7.94
2022-10-11T02:25:51.937Z,8.02
2022-10-11T02:28:25.650Z,8.06
2022-10-11T02:30:54.647Z,8.14
2022-10-11T02:33:27.378Z,8.22
2022-10-11T02:36:01.092Z,8.12
2022-10-11T02:38:34.167Z,7.78
2022-10-11T02:41:21.431Z,7.90
2022-10-11T02:43:57.555Z,7.95
2022-10-11T02:46:26.558Z,7.91
2022-10-11T02:48:54.060Z,7.85
2022-10-11T02:51:20.646Z,7.80
2022-10-11T02:53:47.497Z,7.77
2022-10-11T02:56:14.034Z,7.91
2022-10-11T02:58:40.628Z,7.96
2022-10-11T03:01:07.210Z,8.08
2022-10-11T03:03:33.810Z,8.05
2022-10-11T03:06:02.823Z,8.10
2022-10-11T03:08:29.877Z,8.09
2022-10-11T03:10:56.443Z,8.25
2022-10-11T03:13:23.112Z,8.13
2022-10-11T03:16:02.810Z,8.19
2022-10-11T03:18:34.014Z,8.27
2022-10-11T03:21:00.696Z,8.24
2022-10-11T03:23:27.343Z,8.28
2022-10-11T03:25:53.949Z,8.30
2022-10-11T03:28:21.285Z,8.42
2022-10-11T03:30:49.441Z,8.43
2022-10-11T03:33:17.160Z,8.25
2022-10-11T03:35:45.652Z,8.21
2022-10-11T03:38:22.126Z,8.38
2022-10-11T03:40:48.929Z,8.39
2022-10-11T03:43:15.924Z,8.51
2022-10-11T03:45:42.613Z,8.49
2022-10-11T03:48:09.744Z,8.50
2022-10-11T03:50:37.090Z,8.46
2022-10-11T03:53:05.037Z,8.35
2022-10-11T03:55:31.733Z,8.21
2022-10-11T03:57:58.306Z,8.30
2022-10-11T04:00:25.036Z,8.22
2022-10-11T04:02:51.536Z,8.24
2022-10-11T04:05:18.214Z,8.18
2022-10-11T04:07:44.812Z,8.28
2022-10-11T04:10:11.422Z,8.37
2022-10-11T04:12:39.132Z,8.42
2022-10-11T04:15:07.010Z,8.41
2022-10-11T04:17:33.628Z,8.38
2022-10-11T04:20:00.169Z,8.42
2022-10-11T04:22:26.764Z,8.31
2022-10-11T04:24:53.351Z,8.46
2022-10-11T04:27:19.991Z,8.55
2022-10-11T04:29:46.588Z,8.56
2022-10-11T04:32:13.144Z,8.32
2022-10-11T04:34:39.758Z,8.45
2022-10-11T04:37:06.409Z,8.52
2022-10-11T04:39:33.067Z,8.62
2022-10-11T04:41:59.611Z,8.60
2022-10-11T04:44:26.160Z,8.56
2022-10-11T04:46:53.041Z,8.52
2022-10-11T04:49:19.698Z,8.55
2022-10-11T04:51:46.220Z,8.62
2022-10-11T04:54:12.813Z,8.58
2022-10-11T04:56:39.622Z,8.64
2022-10-11T04:59:06.335Z,8.63
2022-10-11T05:01:33.075Z,8.55
2022-10-11T05:03:59.926Z,8.66
2022-10-11T05:06:26.622Z,8.74
2022-10-11T05:08:53.161Z,8.66
2022-10-11T05:11:19.877Z,8.74
2022-10-11T05:13:46.834Z,8.70
2022-10-11T05:16:14.625Z,8.62
2022-10-11T05:18:41.621Z,8.77
2022-10-11T05:21:14.413Z,8.83
2022-10-11T05:23:41.187Z,8.88
2022-10-11T05:26:08.206Z,8.71
2022-10-11T05:28:35.211Z,8.85
2022-10-11T05:31:01.838Z,8.59
2022-10-11T05:33:28.576Z,8.68
2022-10-11T05:35:55.210Z,8.82
2022-10-11T05:38:22.767Z,8.79
2022-10-11T05:40:50.129Z,8.81
2022-10-11T05:43:16.730Z,8.67
2022-10-11T05:45:44.556Z,8.76
2022-10-11T05:48:11.532Z,8.72
2022-10-11T05:50:39.218Z,8.59
2022-10-11T05:53:06.269Z,8.66
2022-10-11T05:55:40.590Z,8.73
2022-10-11T05:58:14.432Z,8.78
2022-10-11T06:00:41.326Z,8.77
2022-10-11T06:03:10.927Z,8.79
2022-10-11T06:05:37.861Z,8.68
2022-10-11T06:08:06.056Z,8.61
2022-10-11T06:10:33.093Z,8.77
2022-10-11T06:12:59.799Z,8.77
2022-10-11T06:15:26.745Z,8.76
2022-10-11T06:17:53.389Z,8.63
2022-10-11T06:20:19.984Z,8.68
2022-10-11T06:22:46.534Z,8.65
2022-10-11T06:25:13.118Z,8.60
2022-10-11T06:27:39.668Z,8.63
2022-10-11T06:30:07.351Z,8.61
2022-10-11T06:32:33.932Z,8.77
2022-10-11T06:35:00.526Z,8.68
2022-10-11T06:37:27.093Z,8.83
2022-10-11T06:39:53.663Z,8.74
2022-10-11T06:42:20.275Z,8.61
2022-10-11T06:44:46.902Z,8.66
2022-10-11T06:47:13.470Z,8.66
2022-10-11T06:49:40.020Z,8.79
2022-10-11T06:52:06.573Z,8.65
2022-10-11T06:54:33.145Z,8.81
2022-10-11T06:57:00.131Z,8.82
2022-10-11T06:59:26.644Z,8.86
2022-10-11T07:01:53.179Z,8.79
2022-10-11T07:04:19.680Z,8.71
2022-10-11T07:06:46.303Z,8.66
2022-10-11T07:09:12.982Z,8.77
2022-10-11T07:11:39.700Z,8.66
2022-10-11T07:14:07.996Z,8.61
2022-10-11T07:16:36.190Z,8.65
2022-10-11T07:19:04.753Z,8.76
2022-10-11T07:21:33.341Z,8.97
2022-10-11T07:24:00.352Z,8.85
2022-10-11T07:26:27.590Z,8.91
2022-10-11T07:28:54.287Z,8.89
2022-10-11T07:31:23.673Z,8.71
2022-10-11T07:33:50.250Z,8.66
2022-10-11T07:36:16.958Z,8.60
2022-10-11T07:38:45.534Z,8.83
2022-10-11T07:41:12.961Z,8.77
2022-10-11T07:43:40.137Z,8.94
2022-10-11T07:46:07.686Z,8.95
2022-10-11T07:48:36.518Z,8.80
2022-10-11T07:51:15.799Z,8.83
2022-10-11T07:53:44.527Z,8.89
2022-10-11T07:56:13.094Z,8.87
2022-10-11T07:58:41.284Z,8.87
2022-10-11T08:01:09.216Z,9.00
2022-10-11T08:03:37.149Z,9.03
2022-10-11T08:06:07.465Z,8.95
2022-10-11T08:08:34.596Z,8.99
2022-10-11T08:11:01.299Z,9.02
2022-10-11T08:13:28.199Z,9.09
2022-10-11T08:15:55.210Z,8.79
2022-10-11T08:18:21.898Z,8.87
2022-10-11T08:20:48.752Z,8.87
2022-10-11T08:23:17.295Z,8.80
2022-10-11T08:25:46.311Z,8.97
2022-10-11T08:28:20.876Z,8.93
2022-10-11T08:30:49.716Z,9.02
2022-10-11T08:33:17.761Z,9.00
2022-10-11T08:35:45.115Z,9.20
2022-10-11T08:38:11.922Z,8.94
2022-10-11T08:40:45.707Z,8.97
2022-10-11T08:43:26.025Z,9.20
2022-10-11T08:45:56.051Z,9.32
2022-10-11T08:48:41.573Z,9.42
2022-10-11T08:51:30.641Z,9.58
2022-10-11T08:54:07.221Z,9.60
2022-10-11T08:56:37.710Z,9.55
2022-10-11T08:59:09.304Z,9.66
2022-10-11T09:01:36.087Z,9.75
2022-10-11T09:04:03.651Z,9.76
2022-10-11T09:06:54.060Z,9.77
2022-10-11T09:09:50.032Z,9.90
2022-10-11T09:12:40.501Z,9.95
2022-10-11T09:15:24.424Z,9.87
2022-10-11T09:17:58.853Z,9.98
2022-10-11T09:20:31.451Z,10.08
2022-10-11T09:23:01.803Z,10.13
2022-10-11T09:25:34.928Z,9.82
2022-10-11T09:28:40.370Z,9.82
2022-10-11T09:31:10.010Z,10.04
2022-10-11T09:33:41.910Z,10.12
2022-10-11T09:36:44.393Z,10.28
2022-10-11T09:39:37.119Z,10.28
2022-10-11T09:42:11.501Z,10.27
2022-10-11T09:44:49.887Z,10.33
2022-10-11T09:47:24.269Z,10.26
2022-10-11T09:49:56.538Z,9.80
2022-10-11T09:52:24.095Z,9.96
2022-10-11T09:54:54.549Z,10.24
2022-10-11T09:57:25.982Z,10.34
2022-10-11T10:00:00.418Z,10.53
2022-10-11T10:02:38.312Z,10.65
2022-10-11T10:05:19.197Z,10.90
2022-10-11T10:08:10.372Z,11.04
2022-10-11T10:10:48.680Z,11.10
2022-10-11T10:13:25.502Z,11.04
2022-10-11T10:15:55.033Z,11.07
2022-10-11T10:18:33.269Z,11.20
2022-10-11T10:21:00.935Z,11.02
2022-10-11T10:23:34.753Z,10.96
2022-10-11T10:26:12.514Z,11.23
2022-10-11T10:28:53.514Z,11.03
2022-10-11T10:31:26.416Z,11.02
2022-10-11T10:33:54.630Z,11.13
2022-10-11T10:36:30.006Z,11.44
2022-10-11T10:39:05.861Z,11.47
2022-10-11T10:41:32.724Z,11.51
2022-10-11T10:44:00.620Z,11.25
2022-10-11T10:46:47.320Z,11.44
2022-10-11T10:52:29.352Z,11.95
2022-10-11T10:55:05.016Z,11.89
2022-10-11T10:57:40.838Z,11.91
2022-10-11T11:00:19.434Z,12.00
2022-10-11T11:02:52.380Z,11.97
2022-10-11T11:05:37.882Z,11.96
2022-10-11T11:08:16.607Z,12.19
2022-10-11T11:11:01.390Z,12.27
2022-10-11T11:13:40.677Z,12.61
2022-10-11T11:16:07.662Z,12.87
2022-10-11T11:18:51.781Z,12.98
2022-10-11T11:21:53.996Z,13.18
2022-10-11T11:24:51.630Z,13.53
2022-10-11T11:27:39.995Z,13.73
2022-10-11T11:30:09.660Z,14.07
2022-10-11T11:32:45.525Z,13.84
2022-10-11T11:35:24.644Z,14.12
2022-10-11T11:38:00.303Z,14.32
2022-10-11T11:40:39.346Z,14.24
2022-10-11T11:43:26.966Z,14.29
2022-10-11T11:45:58.299Z,14.09
2022-10-11T11:48:26.681Z,13.67
2022-10-11T11:51:12.965Z,13.22
2022-10-11T11:54:15.307Z,13.44
2022-10-11T11:56:44.967Z,13.68
2022-10-11T11:59:27.173Z,13.73
2022-10-11T12:02:03.805Z,13.35
2022-10-11T12:04:35.916Z,13.82
2022-10-11T12:07:16.337Z,13.99
2022-10-11T12:09:50.285Z,14.36
2022-10-11T12:12:36.118Z,14.49
2022-10-11T12:15:25.747Z,14.35
2022-10-11T12:17:58.154Z,15.09
2022-10-11T12:20:24.629Z,15.43
2022-10-11T12:23:01.308Z,15.19
2022-10-11T12:25:28.735Z,15.62
2022-10-11T12:28:21.080Z,14.99
2022-10-11T12:30:47.777Z,15.27
2022-10-11T12:33:21.311Z,15.29
2022-10-11T12:35:56.429Z,15.50
2022-10-11T12:38:34.481Z,14.38
2022-10-11T12:41:10.222Z,15.29
2022-10-11T12:44:09.040Z,15.87
2022-10-11T12:47:00.136Z,15.73
2022-10-11T12:49:46.029Z,15.33
2022-10-11T12:52:18.301Z,15.62
2022-10-11T12:54:51.877Z,16.19
2022-10-11T12:57:45.196Z,15.91
2022-10-11T13:00:27.878Z,16.26
2022-10-11T13:02:56.586Z,16.08
2022-10-11T13:05:23.105Z,16.21
2022-10-11T13:07:51.544Z,15.63
2022-10-11T13:10:25.022Z,15.52
2022-10-11T13:12:53.337Z,16.12
2022-10-11T13:15:22.630Z,15.23
2022-10-11T13:17:51.704Z,15.76
2022-10-11T13:20:23.769Z,16.02
2022-10-11T13:22:53.096Z,15.27
2022-10-11T13:25:21.655Z,16.01
2022-10-11T13:27:51.219Z,16.02
2022-10-11T13:30:24.010Z,15.66
2022-10-11T13:32:52.066Z,15.84
2022-10-11T13:35:34.423Z,15.65
2022-10-11T13:38:01.611Z,15.89
2022-10-11T13:40:29.483Z,16.00
2022-10-11T13:42:56.896Z,16.42
2022-10-11T13:45:26.148Z,16.32
2022-10-11T13:47:55.674Z,15.98
2022-10-11T13:50:30.292Z,16.09
2022-10-11T13:53:22.873Z,16.17
2022-10-11T13:56:02.545Z,16.25
2022-10-11T13:58:42.438Z,16.12
2022-10-11T14:01:20.916Z,16.18
2022-10-11T14:03:55.813Z,16.09
2022-10-11T14:06:22.870Z,16.32
2022-10-11T14:08:56.722Z,16.09
2022-10-11T14:11:39.222Z,16.18
2022-10-11T14:14:29.189Z,16.50
2022-10-11T14:16:57.703Z,15.92
2022-10-11T14:19:24.429Z,15.93
2022-10-11T14:21:53.323Z,15.84
2022-10-11T14:24:21.713Z,15.90
2022-10-11T14:26:51.758Z,15.67
2022-10-11T14:29:31.076Z,15.86
2022-10-11T14:32:10.709Z,15.83
2022-10-11T14:34:37.771Z,15.75
2022-10-11T14:37:04.331Z,15.98
2022-10-11T14:39:32.477Z,16.15
2022-10-11T14:41:59.350Z,16.37
2022-10-11T14:44:26.190Z,16.60
2022-10-11T14:46:54.655Z,16.97
2022-10-11T14:49:25.135Z,17.37
2022-10-11T14:51:53.243Z,17.26
2022-10-11T14:54:24.244Z,17.73
2022-10-11T14:56:52.522Z,17.90
2022-10-11T14:59:21.777Z,17.92
2022-10-11T15:01:51.970Z,18.09
2022-10-11T15:04:22.144Z,18.20
2022-10-11T15:06:49.329Z,17.96
2022-10-11T15:09:17.089Z,17.83
2022-10-11T15:11:43.772Z,17.67
2022-10-11T15:14:10.266Z,17.49
2022-10-11T15:16:36.902Z,17.42
2022-10-11T15:19:03.730Z,17.65
2022-10-11T15:21:30.482Z,17.93
2022-10-11T15:23:57.108Z,18.62
2022-10-11T15:26:30.014Z,18.65
2022-10-11T15:28:57.770Z,18.83
2022-10-11T15:31:24.627Z,19.15
2022-10-11T15:33:51.426Z,19.49
2022-10-11T15:36:22.293Z,19.10
2022-10-11T15:38:49.414Z,18.26
2022-10-11T15:41:18.734Z,17.87
2022-10-11T15:43:47.013Z,17.68
2022-10-11T15:46:17.444Z,17.12
2022-10-11T15:48:45.287Z,16.85
2022-10-11T15:51:11.929Z,16.63
2022-10-11T15:53:39.619Z,16.70
2022-10-11T15:56:15.160Z,16.40
2022-10-11T15:58:42.099Z,15.82
2022-10-11T16:01:13.541Z,15.49
2022-10-11T16:03:40.540Z,15.56
2022-10-11T16:06:08.565Z,15.52
2022-10-11T16:08:36.015Z,15.34
2022-10-11T16:11:03.606Z,15.20
2022-10-11T16:13:30.334Z,15.07
2022-10-11T16:15:56.997Z,15.12
2022-10-11T16:18:24.031Z,14.89
2022-10-11T16:20:52.004Z,14.86
2022-10-11T16:23:20.898Z,14.77
2022-10-11T16:25:56.962Z,14.66
2022-10-11T16:28:23.762Z,14.65
2022-10-11T16:30:50.614Z,14.51
2022-10-11T16:33:17.140Z,14.45
2022-10-11T16:35:43.798Z,14.34
2022-10-11T16:38:12.802Z,14.19
2022-10-11T16:40:40.368Z,14.04
2022-10-11T16:43:08.170Z,13.89
2022-10-11T16:45:35.855Z,13.74
2022-10-11T16:48:03.866Z,13.78
2022-10-11T16:50:31.740Z,13.66
2022-10-11T16:53:00.054Z,13.53
2022-10-11T16:55:26.714Z,13.56
2022-10-11T16:57:53.271Z,13.51
2022-10-11T17:00:25.316Z,13.08
2022-10-11T17:05:50.115Z,13.14
2022-10-11T17:08:27.827Z,12.97
2022-10-11T17:11:32.512Z,12.68
2022-10-11T17:14:28.177Z,12.57
2022-10-11T17:16:56.138Z,12.55
2022-10-11T17:22:27.564Z,12.23
2022-10-11T17:24:54.438Z,12.35
2022-10-11T17:27:31.895Z,12.43
2022-10-11T17:30:10.954Z,12.38
2022-10-11T17:32:47.598Z,12.27
2022-10-11T17:35:14.666Z,12.51
2022-10-11T17:44:17.046Z,12.24
2022-10-11T17:50:38.441Z,12.10
2022-10-11T17:54:08.292Z,11.94
2022-10-11T17:59:42.488Z,11.88
2022-10-11T18:02:10.330Z,11.79
2022-10-11T18:04:37.676Z,11.69
2022-10-11T18:07:04.690Z,11.72
2022-10-11T18:09:33.204Z,11.54
2022-10-11T18:12:00.439Z,11.45
2022-10-11T18:14:27.698Z,11.51
2022-10-11T18:16:54.653Z,11.21
2022-10-11T18:19:22.178Z,11.21
2022-10-11T18:22:07.037Z,11.16
2022-10-11T18:24:55.959Z,11.17
2022-10-11T18:27:22.717Z,11.17
2022-10-11T18:29:49.376Z,11.18
2022-10-11T18:32:25.451Z,11.17
2022-10-11T18:34:57.916Z,11.03
2022-10-11T18:37:26.773Z,11.07
2022-10-11T18:39:54.252Z,11.07
2022-10-11T18:42:21.744Z,10.98
2022-10-11T18:44:49.695Z,10.89
2022-10-11T18:47:17.931Z,10.84
2022-10-11T18:49:44.494Z,10.70
2022-10-11T18:52:11.317Z,10.73
2022-10-11T18:54:39.717Z,10.72
2022-10-11T18:57:09.867Z,10.70
2022-10-11T18:59:37.556Z,10.65
2022-10-11T19:02:05.126Z,10.20
2022-10-11T19:04:34.619Z,10.30
2022-10-11T19:07:02.959Z,10.24
2022-10-11T19:09:31.070Z,9.92
2022-10-11T19:11:58.790Z,10.09
2022-10-11T19:14:30.409Z,10.04
2022-10-11T19:17:00.114Z,9.83
2022-10-11T19:19:29.418Z,9.85
2022-10-11T19:21:57.839Z,9.69
2022-10-11T19:24:27.355Z,9.93
2022-10-11T19:26:57.323Z,9.86
2022-10-11T19:29:28.722Z,9.80
2022-10-11T19:31:57.822Z,9.88
2022-10-11T19:34:31.318Z,9.93
2022-10-11T19:37:00.667Z,9.86
2022-10-11T19:39:28.033Z,9.88
2022-10-11T19:41:54.855Z,9.78
2022-10-11T19:44:21.540Z,9.55
2022-10-11T19:46:52.483Z,9.57
2022-10-11T19:49:22.754Z,9.70
2022-10-11T19:51:49.730Z,9.57
2022-10-11T19:54:17.070Z,9.61
2022-10-11T19:56:44.679Z,9.55
2022-10-11T19:59:12.141Z,9.52
2022-10-11T20:01:39.965Z,9.56
2022-10-11T20:04:22.612Z,9.32
2022-10-11T20:06:56.727Z,9.31
2022-10-11T20:09:31.081Z,9.27
2022-10-11T20:11:58.523Z,9.13
2022-10-11T20:14:25.289Z,9.09
2022-10-11T20:16:52.011Z,9.24
2022-10-11T20:19:18.793Z,9.33
2022-10-11T20:21:45.521Z,9.18
2022-10-11T20:24:12.381Z,9.04
2022-10-11T20:26:39.534Z,9.11
2022-10-11T20:29:06.475Z,9.16
2022-10-11T20:31:38.448Z,9.10
2022-10-11T20:34:07.259Z,9.05
2022-10-11T20:36:35.798Z,9.01
2022-10-11T20:39:02.552Z,9.01
2022-10-11T20:41:31.819Z,8.86
2022-10-11T20:43:59.888Z,9.03
2022-10-11T20:46:29.817Z,9.04
2022-10-11T20:49:08.141Z,8.96
2022-10-11T20:51:38.551Z,8.96
2022-10-11T20:54:05.457Z,9.08
2022-10-11T20:56:32.271Z,8.89
2022-10-11T20:58:59.413Z,8.93
2022-10-11T21:01:29.038Z,9.01
2022-10-11T21:03:57.327Z,8.93
2022-10-11T21:06:24.201Z,8.78
2022-10-11T21:08:50.826Z,8.22
2022-10-11T21:11:17.415Z,8.35
2022-10-11T21:13:44.026Z,8.45
2022-10-11T21:16:16.056Z,8.52
2022-10-11T21:18:43.060Z,8.50
2022-10-11T21:21:14.608Z,8.47
2022-10-11T21:23:41.495Z,8.48
2022-10-11T21:26:11.299Z,8.49
2022-10-11T21:28:38.827Z,8.56
2022-10-11T21:31:10.997Z,8.58
2022-10-11T21:33:41.209Z,8.38
2022-10-11T21:36:11.250Z,8.39
2022-10-11T21:38:38.270Z,8.30
2022-10-11T21:41:06.882Z,8.41
2022-10-11T21:43:35.816Z,8.29
2022-10-11T21:46:47.955Z,8.15
2022-10-11T21:49:16.852Z,8.18
2022-10-11T21:51:43.492Z,8.14
2022-10-11T21:54:10.034Z,8.05
2022-10-11T21:56:36.650Z,8.07
2022-10-11T21:59:06.602Z,7.98
2022-10-11T22:01:36.765Z,7.83
2022-10-11T22:04:07.460Z,7.94
2022-10-11T22:06:34.974Z,7.88
2022-10-11T22:09:01.813Z,7.86
2022-10-11T22:11:28.489Z,7.85
2022-10-11T22:13:55.228Z,7.88
2022-10-11T22:16:21.794Z,7.89
2022-10-11T22:18:48.414Z,7.86
2022-10-11T22:21:18.110Z,7.92
2022-10-11T22:23:46.090Z,7.69
2022-10-11T22:26:16.267Z,7.65
2022-10-11T22:28:43.338Z,7.62
2022-10-11T22:31:10.346Z,7.61
2022-10-11T22:33:37.463Z,7.43
2022-10-11T22:36:10.078Z,7.32
2022-10-11T22:38:38.382Z,7.39
2022-10-11T22:41:05.422Z,7.33
2022-10-11T22:43:32.400Z,7.24
2022-10-11T22:45:59.005Z,7.22
2022-10-11T22:48:25.763Z,7.34
2022-10-11T22:50:52.450Z,7.30
2022-10-11T22:53:19.392Z,7.37
2022-10-11T22:55:46.585Z,7.33
2022-10-11T22:58:13.513Z,7.12
2022-10-11T23:00:40.096Z,7.02
2022-10-11T23:03:09.624Z,6.83
2022-10-11T23:05:36.448Z,6.92
2022-10-11T23:08:02.979Z,6.78
2022-10-11T23:10:29.544Z,6.83
2022-10-11T23:12:56.129Z,6.91
2022-10-11T23:15:22.732Z,6.79
2022-10-11T23:17:49.329Z,6.88
2022-10-11T23:20:15.908Z,6.81
2022-10-11T23:22:42.434Z,6.80
2022-10-11T23:25:09.221Z,6.63
2022-10-11T23:27:36.111Z,6.64
2022-10-11T23:30:03.780Z,6.68
2022-10-11T23:32:30.537Z,6.46
2022-10-11T23:34:57.164Z,6.62
2022-10-11T23:37:23.759Z,6.54
2022-10-11T23:39:50.272Z,6.56
2022-10-11T23:42:16.785Z,6.61
2022-10-11T23:44:43.340Z,6.55
2022-10-11T23:47:09.894Z,6.70
2022-10-11T23:49:36.454Z,6.54
2022-10-11T23:52:03.015Z,6.45
2022-10-11T23:54:29.583Z,6.36
2022-10-11T23:56:56.272Z,6.50
2022-10-11T23:59:22.864Z,6.61
